< < Back
Terminal Aerodrome Forecast


Current Version              Previous Versions:   1  2  3  4  5  6  7  8  9  

Terminal Aerodrome Forecast

277
FTUS44 KMRX 262320
TAFCHA
TAF
KCHA 262320Z 2700/2724 20003KT P6SM BKN250
     FM270200 00000KT P6SM BKN120
     FM271000 17004KT P6SM BKN060=



Latest METAR

615
SAUS80 KWBC 270800 RRB
MTRCHA
METAR KCHA 270753Z AUTO 00000KT 6SM BR CLR 04/03 A3028 RMK AO2 SLP253
T00390028


USA.gov is the U.S. government's official web portal to all federal, state and local government web resources and services.